createdAt,value
2023-01-27T00:02:33.635Z,8.68
2023-01-27T00:05:34.412Z,7.93
2023-01-27T00:08:35.264Z,8.25
2023-01-27T00:11:54.708Z,8.52
2023-01-27T00:14:55.276Z,7.82
2023-01-27T00:17:56.339Z,8.05
2023-01-27T00:21:15.379Z,8.57
2023-01-27T00:24:35.167Z,8.07
2023-01-27T00:27:36.700Z,8.77
2023-01-27T00:30:37.673Z,8.50
2023-01-27T00:33:46.004Z,7.95
2023-01-27T00:36:47.062Z,7.43
2023-01-27T00:39:47.928Z,7.53
2023-01-27T00:42:48.833Z,7.18
2023-01-27T00:45:49.598Z,8.05
2023-01-27T00:48:54.214Z,7.53
2023-01-27T00:51:55.332Z,8.27
2023-01-27T00:54:56.194Z,7.78
2023-01-27T00:57:57.066Z,8.02
2023-01-27T01:01:00.718Z,6.97
2023-01-27T01:04:01.808Z,7.63
2023-01-27T01:07:02.463Z,7.55
2023-01-27T01:10:03.339Z,7.28
2023-01-27T01:13:04.514Z,7.18
2023-01-27T01:16:25.366Z,6.80
2023-01-27T01:19:26.268Z,8.38
2023-01-27T01:22:27.304Z,8.43
2023-01-27T01:25:28.079Z,7.32
2023-01-27T01:28:30.430Z,6.80
2023-01-27T01:31:31.416Z,6.45
2023-01-27T01:34:32.118Z,7.82
2023-01-27T01:37:33.017Z,8.45
2023-01-27T01:40:34.446Z,7.60
2023-01-27T01:43:35.389Z,7.95
2023-01-27T01:46:36.277Z,8.15
2023-01-27T01:49:40.328Z,7.85
2023-01-27T01:52:41.107Z,8.13
2023-01-27T01:55:43.538Z,7.47
2023-01-27T01:58:46.055Z,7.55
2023-01-27T02:01:46.858Z,8.75
2023-01-27T02:04:58.734Z,9.27
2023-01-27T02:08:13.018Z,8.23
2023-01-27T02:11:13.872Z,8.55
2023-01-27T02:14:16.526Z,9.07
2023-01-27T02:17:17.855Z,9.48
2023-01-27T02:20:18.546Z,9.73
2023-01-27T02:23:46.099Z,9.90
2023-01-27T02:26:47.068Z,9.88
2023-01-27T02:29:48.061Z,9.48
2023-01-27T02:32:49.502Z,9.93
2023-01-27T02:35:59.350Z,9.20
2023-01-27T02:39:02.196Z,10.48
2023-01-27T02:42:05.951Z,9.65
2023-01-27T02:45:07.248Z,8.90
2023-01-27T02:48:08.284Z,9.45
2023-01-27T02:51:09.424Z,10.07
2023-01-27T02:54:12.469Z,10.77
2023-01-27T02:57:13.189Z,8.30
2023-01-27T03:00:26.304Z,8.57
2023-01-27T03:03:28.903Z,9.80
2023-01-27T03:06:29.845Z,8.77
2023-01-27T03:09:30.658Z,9.18
2023-01-27T03:12:31.508Z,9.15
2023-01-27T03:15:50.740Z,7.95
2023-01-27T03:18:53.879Z,9.50
2023-01-27T03:21:56.336Z,8.88
2023-01-27T03:24:58.043Z,9.95
2023-01-27T03:28:00.283Z,9.85
2023-01-27T03:31:27.504Z,10.27
2023-01-27T03:34:35.244Z,10.80
2023-01-27T03:38:02.956Z,9.07
2023-01-27T03:41:23.872Z,10.15
2023-01-27T03:44:43.339Z,9.88
2023-01-27T03:47:44.014Z,9.30
2023-01-27T03:50:44.919Z,10.18
2023-01-27T03:53:45.691Z,9.25
2023-01-27T03:56:48.146Z,9.30
2023-01-27T03:59:49.843Z,8.90
2023-01-27T04:03:09.528Z,9.45
2023-01-27T04:06:33.123Z,9.15
2023-01-27T04:09:35.995Z,8.88
2023-01-27T04:12:37.040Z,9.07
2023-01-27T04:15:38.461Z,8.70
2023-01-27T04:18:39.697Z,9.07
2023-01-27T04:21:40.521Z,8.35
2023-01-27T04:24:41.616Z,8.95
2023-01-27T04:27:43.519Z,9.43
2023-01-27T04:30:44.332Z,9.05
2023-01-27T04:33:45.546Z,8.50
2023-01-27T04:36:47.757Z,8.80
2023-01-27T04:39:48.905Z,8.38
2023-01-27T04:42:49.519Z,7.95
2023-01-27T04:45:50.595Z,8.07
2023-01-27T04:48:51.631Z,7.85
2023-01-27T04:51:52.521Z,7.60
2023-01-27T04:54:53.067Z,6.97
2023-01-27T04:57:54.039Z,7.88
2023-01-27T05:00:55.034Z,8.20
2023-01-27T05:03:56.494Z,8.85
2023-01-27T05:06:57.376Z,9.88
2023-01-27T05:09:58.631Z,9.27
2023-01-27T05:12:59.771Z,8.90
2023-01-27T05:16:09.854Z,9.88
2023-01-27T05:19:10.593Z,9.85
2023-01-27T05:22:11.775Z,10.00
2023-01-27T05:25:13.124Z,11.23
2023-01-27T05:28:14.750Z,9.55
2023-01-27T05:31:24.405Z,11.63
2023-01-27T05:34:25.235Z,10.10
2023-01-27T05:37:26.561Z,10.82
2023-01-27T05:40:27.563Z,11.18
2023-01-27T05:43:29.732Z,11.88
2023-01-27T05:46:32.319Z,12.75
2023-01-27T05:49:33.615Z,11.82
2023-01-27T05:52:34.175Z,12.23
2023-01-27T05:55:35.128Z,12.60
2023-01-27T05:58:35.671Z,11.82
2023-01-27T06:01:37.746Z,11.35
2023-01-27T06:04:38.923Z,11.75
2023-01-27T06:07:39.756Z,12.32
2023-01-27T06:10:40.647Z,13.50
2023-01-27T06:13:42.174Z,12.13
2023-01-27T06:16:44.221Z,12.48
2023-01-27T06:19:44.951Z,11.15
2023-01-27T06:22:46.775Z,11.65
2023-01-27T06:25:49.248Z,12.18
2023-01-27T06:28:50.035Z,11.32
2023-01-27T06:31:50.862Z,11.82
2023-01-27T06:34:51.796Z,10.98
2023-01-27T06:37:52.449Z,12.00
2023-01-27T06:40:53.167Z,12.88
2023-01-27T06:43:53.886Z,12.65
2023-01-27T06:46:54.455Z,14.48
2023-01-27T06:49:55.408Z,12.48
2023-01-27T06:53:01.439Z,15.25
2023-01-27T06:56:02.587Z,13.50
2023-01-27T06:59:03.739Z,14.35
2023-01-27T07:02:04.373Z,13.30
2023-01-27T07:05:05.395Z,11.43
2023-01-27T07:08:06.259Z,12.75
2023-01-27T07:11:07.350Z,12.68
2023-01-27T07:14:10.478Z,12.27
2023-01-27T07:17:11.342Z,12.07
2023-01-27T07:20:13.956Z,11.70
2023-01-27T07:23:14.999Z,11.27
2023-01-27T07:26:24.808Z,10.50
2023-01-27T07:29:25.785Z,11.90
2023-01-27T07:32:28.444Z,11.88
2023-01-27T07:35:29.620Z,10.00
2023-01-27T07:38:30.580Z,10.30
2023-01-27T07:41:31.506Z,9.95
2023-01-27T07:44:32.281Z,10.77
2023-01-27T07:47:33.142Z,10.93
2023-01-27T07:50:39.597Z,10.18
2023-01-27T07:53:41.153Z,10.07
2023-01-27T07:56:42.142Z,10.63
2023-01-27T07:59:43.280Z,10.10
2023-01-27T08:02:44.000Z,9.75
2023-01-27T08:05:45.065Z,9.63
2023-01-27T08:08:46.014Z,10.57
2023-01-27T08:11:46.996Z,8.48
2023-01-27T08:14:47.779Z,8.75
2023-01-27T08:17:59.126Z,8.68
2023-01-27T08:21:01.396Z,8.05
2023-01-27T08:24:02.275Z,8.82
2023-01-27T08:27:03.495Z,8.85
2023-01-27T08:30:04.816Z,9.85
2023-01-27T08:33:05.952Z,7.97
2023-01-27T08:36:09.738Z,10.15
2023-01-27T08:39:11.431Z,7.97
2023-01-27T08:42:13.175Z,7.65
2023-01-27T08:45:14.803Z,6.63
2023-01-27T08:48:16.040Z,6.85
2023-01-27T08:51:17.086Z,6.70
2023-01-27T08:54:17.575Z,6.10
2023-01-27T08:57:18.151Z,6.38
2023-01-27T09:00:19.235Z,4.85
2023-01-27T09:03:20.253Z,5.95
2023-01-27T09:06:21.972Z,6.20
2023-01-27T09:09:23.175Z,6.57
2023-01-27T09:12:23.670Z,6.65
2023-01-27T09:15:24.837Z,7.90
2023-01-27T09:18:25.596Z,6.50
2023-01-27T09:21:27.117Z,6.05
2023-01-27T09:24:27.855Z,6.72
2023-01-27T09:27:38.757Z,6.32
2023-01-27T09:30:41.158Z,6.20
2023-01-27T09:33:42.344Z,6.15
2023-01-27T09:36:51.460Z,5.70
2023-01-27T09:39:58.679Z,5.93
2023-01-27T09:43:24.632Z,6.18
2023-01-27T09:46:47.795Z,6.17
2023-01-27T09:50:09.349Z,6.45
2023-01-27T09:53:28.832Z,6.28
2023-01-27T09:56:54.038Z,7.35
2023-01-27T09:59:58.233Z,5.78
2023-01-27T10:03:10.783Z,6.10
2023-01-27T10:06:44.152Z,5.78
2023-01-27T10:10:09.323Z,5.82
2023-01-27T10:13:18.386Z,6.78
2023-01-27T10:16:35.289Z,5.90
2023-01-27T10:19:56.924Z,5.90
2023-01-27T10:23:10.524Z,6.00
2023-01-27T10:26:49.602Z,5.50
2023-01-27T10:30:16.253Z,6.30
2023-01-27T10:33:19.433Z,5.43
2023-01-27T10:36:30.187Z,4.88
2023-01-27T10:40:04.862Z,4.80
2023-01-27T10:43:20.672Z,4.97
2023-01-27T10:47:04.962Z,5.05
2023-01-27T10:50:12.772Z,4.60
2023-01-27T10:53:17.033Z,5.07
2023-01-27T10:56:44.728Z,4.60
2023-01-27T11:00:21.869Z,4.95
2023-01-27T11:03:32.653Z,5.35
2023-01-27T11:06:37.772Z,5.32
2023-01-27T11:09:48.226Z,4.80
2023-01-27T11:12:53.696Z,4.20
2023-01-27T11:15:58.879Z,6.57
2023-01-27T11:19:11.279Z,4.50
2023-01-27T11:22:23.077Z,4.57
2023-01-27T11:25:38.368Z,5.32
2023-01-27T11:29:15.107Z,5.45
2023-01-27T11:32:47.654Z,5.57
2023-01-27T11:35:49.193Z,5.10
2023-01-27T11:38:50.212Z,5.65
2023-01-27T11:41:54.152Z,6.05
2023-01-27T11:44:56.538Z,4.57
2023-01-27T11:48:00.132Z,4.95
2023-01-27T11:51:01.794Z,5.55
2023-01-27T11:54:09.736Z,4.57
2023-01-27T11:57:20.386Z,4.78
2023-01-27T12:00:35.068Z,5.07
2023-01-27T12:03:54.423Z,5.13
2023-01-27T12:07:20.555Z,4.57
2023-01-27T12:10:23.189Z,4.47
2023-01-27T12:13:27.184Z,4.75
2023-01-27T12:16:49.350Z,5.18
2023-01-27T12:19:51.991Z,4.45
2023-01-27T12:22:55.643Z,5.00
2023-01-27T12:25:59.796Z,4.32
2023-01-27T12:29:06.039Z,5.03
2023-01-27T12:32:15.487Z,4.63
2023-01-27T12:35:26.488Z,4.85
2023-01-27T12:38:32.672Z,5.72
2023-01-27T12:41:36.582Z,5.30
2023-01-27T12:44:42.930Z,4.10
2023-01-27T12:48:00.013Z,5.25
2023-01-27T12:51:16.111Z,4.15
2023-01-27T12:54:24.741Z,5.20
2023-01-27T12:57:30.492Z,5.45
2023-01-27T13:00:33.197Z,4.40
2023-01-27T13:03:40.653Z,5.82
2023-01-27T13:06:55.266Z,4.97
2023-01-27T13:10:11.987Z,5.22
2023-01-27T13:13:20.602Z,6.20
2023-01-27T13:16:31.234Z,6.32
2023-01-27T13:19:42.646Z,4.82
2023-01-27T13:22:59.903Z,5.30
2023-01-27T13:26:10.738Z,5.32
2023-01-27T13:29:40.134Z,5.95
2023-01-27T13:32:43.737Z,5.10
2023-01-27T13:35:59.931Z,5.60
2023-01-27T13:39:23.569Z,4.97
2023-01-27T13:42:35.508Z,5.20
2023-01-27T13:45:48.579Z,4.95
2023-01-27T13:49:03.547Z,5.70
2023-01-27T13:52:08.099Z,5.32
2023-01-27T13:55:13.632Z,6.25
2023-01-27T13:58:21.486Z,5.00
2023-01-27T14:01:43.069Z,5.22
2023-01-27T14:04:58.982Z,5.82
2023-01-27T14:08:20.839Z,5.82
2023-01-27T14:11:40.509Z,5.32
2023-01-27T14:14:58.200Z,5.93
2023-01-27T14:18:12.959Z,5.95
2023-01-27T14:21:38.269Z,5.75
2023-01-27T14:28:00.755Z,5.22
2023-01-27T14:31:17.692Z,5.50
2023-01-27T14:34:46.012Z,5.00
2023-01-27T14:38:08.435Z,5.82
2023-01-27T14:41:32.274Z,5.93
2023-01-27T14:45:06.446Z,5.18
2023-01-27T14:48:49.347Z,5.50
2023-01-27T14:52:00.259Z,5.93
2023-01-27T14:55:21.492Z,5.40
2023-01-27T14:58:47.763Z,5.15
2023-01-27T15:02:03.146Z,5.53
2023-01-27T15:05:39.418Z,5.45
2023-01-27T15:09:02.199Z,6.32
2023-01-27T15:12:11.253Z,5.30
2023-01-27T15:15:30.279Z,5.28
2023-01-27T15:18:43.392Z,8.48
2023-01-27T15:22:13.200Z,5.28
2023-01-27T15:25:20.358Z,5.03
2023-01-27T15:28:27.223Z,4.88
2023-01-27T15:31:30.393Z,4.72
2023-01-27T15:34:31.291Z,5.50
2023-01-27T15:37:32.475Z,4.95
2023-01-27T15:40:59.547Z,5.63
2023-01-27T15:50:32.692Z,4.45
2023-01-27T15:53:41.908Z,5.75
2023-01-27T15:56:44.329Z,5.05
2023-01-27T15:59:58.359Z,5.05
2023-01-27T16:03:02.900Z,4.55
2023-01-27T16:06:12.366Z,5.50
2023-01-27T16:09:36.385Z,5.30
2023-01-27T16:12:43.635Z,5.20
2023-01-27T16:15:45.028Z,5.15
2023-01-27T16:19:11.069Z,5.15
2023-01-27T16:22:15.500Z,5.07
2023-01-27T16:25:35.790Z,5.90
2023-01-27T16:28:38.464Z,5.85
2023-01-27T16:31:41.752Z,6.15
2023-01-27T16:34:45.296Z,5.70
2023-01-27T16:38:00.725Z,6.35
2023-01-27T16:41:23.358Z,5.30
2023-01-27T16:44:46.019Z,5.90
2023-01-27T16:47:51.654Z,6.05
2023-01-27T16:50:54.143Z,6.82
2023-01-27T16:53:58.206Z,6.93
2023-01-27T16:56:59.340Z,7.65
2023-01-27T17:00:06.953Z,7.80
2023-01-27T17:03:16.651Z,7.53
2023-01-27T17:06:18.061Z,7.25
2023-01-27T17:09:20.095Z,7.28
2023-01-27T17:12:33.134Z,6.50
2023-01-27T17:15:38.654Z,7.50
2023-01-27T17:18:50.868Z,7.43
2023-01-27T17:22:10.383Z,7.05
2023-01-27T17:25:35.368Z,7.93
2023-01-27T17:28:36.539Z,7.38
2023-01-27T17:31:38.796Z,8.05
2023-01-27T17:34:41.216Z,7.47
2023-01-27T17:37:45.147Z,6.88
2023-01-27T17:40:48.648Z,8.10
2023-01-27T17:43:49.653Z,8.05
2023-01-27T17:46:50.325Z,8.27
2023-01-27T17:49:51.670Z,7.43
2023-01-27T17:52:56.059Z,8.27
2023-01-27T17:55:57.447Z,8.27
2023-01-27T17:59:20.867Z,9.00
2023-01-27T18:02:34.413Z,8.57
2023-01-27T18:05:37.884Z,8.77
2023-01-27T18:08:40.278Z,8.68
2023-01-27T18:11:53.428Z,8.40
2023-01-27T18:14:54.332Z,9.00
2023-01-27T18:17:59.537Z,8.60
2023-01-27T18:21:14.527Z,8.00
2023-01-27T18:24:24.623Z,8.52
2023-01-27T18:27:33.597Z,7.85
2023-01-27T18:30:34.523Z,8.40
2023-01-27T18:33:36.797Z,7.78
2023-01-27T18:36:39.194Z,8.50
2023-01-27T18:39:41.173Z,9.65
2023-01-27T18:42:42.191Z,8.27
2023-01-27T18:45:44.552Z,8.80
2023-01-27T18:48:46.086Z,7.78
2023-01-27T18:51:46.993Z,8.93
2023-01-27T18:54:48.136Z,9.23
2023-01-27T18:57:54.098Z,9.52
2023-01-27T19:00:57.697Z,9.00
2023-01-27T19:03:58.559Z,10.20
2023-01-27T19:07:00.389Z,9.52
2023-01-27T19:10:01.584Z,8.93
2023-01-27T19:13:03.468Z,9.50
2023-01-27T19:16:12.325Z,9.43
2023-01-27T19:19:13.061Z,9.25
2023-01-27T19:22:17.091Z,10.65
2023-01-27T19:25:18.630Z,10.07
2023-01-27T19:28:39.920Z,9.52
2023-01-27T19:31:40.918Z,8.40
2023-01-27T19:34:41.963Z,9.35
2023-01-27T19:37:42.911Z,10.20
2023-01-27T19:40:44.343Z,10.88
2023-01-27T19:43:50.084Z,10.70
2023-01-27T19:46:51.062Z,9.57
2023-01-27T19:49:52.188Z,11.02
2023-01-27T19:52:53.287Z,10.35
2023-01-27T19:55:57.455Z,10.60
2023-01-27T19:58:58.943Z,10.48
2023-01-27T20:01:59.815Z,10.73
2023-01-27T20:05:00.554Z,10.73
2023-01-27T20:08:01.469Z,11.00
2023-01-27T20:11:02.341Z,10.68
2023-01-27T20:14:30.058Z,11.75
2023-01-27T20:17:30.828Z,11.02
2023-01-27T20:20:31.799Z,10.93
2023-01-27T20:23:32.947Z,10.82
2023-01-27T20:26:34.127Z,11.75
2023-01-27T20:29:36.755Z,12.20
2023-01-27T20:32:37.676Z,12.45
2023-01-27T20:35:38.616Z,9.95
2023-01-27T20:38:39.900Z,10.23
2023-01-27T20:41:40.878Z,11.25
2023-01-27T20:44:41.711Z,10.52
2023-01-27T20:47:43.173Z,13.55
2023-01-27T20:50:44.091Z,11.30
2023-01-27T20:53:46.074Z,10.68
2023-01-27T20:56:46.804Z,10.60
2023-01-27T20:59:48.398Z,10.75
2023-01-27T21:02:49.158Z,11.15
2023-01-27T21:05:49.933Z,10.85
2023-01-27T21:08:50.859Z,10.10
2023-01-27T21:11:51.690Z,10.25
2023-01-27T21:14:52.488Z,10.90
2023-01-27T21:17:53.680Z,11.73
2023-01-27T21:20:55.995Z,10.90
2023-01-27T21:24:00.167Z,9.75
2023-01-27T21:27:01.407Z,10.73
2023-01-27T21:30:02.084Z,10.40
2023-01-27T21:33:03.087Z,10.93
2023-01-27T21:36:05.823Z,10.40
2023-01-27T21:39:07.215Z,10.20
2023-01-27T21:42:13.493Z,9.80
2023-01-27T21:45:16.038Z,9.53
2023-01-27T21:48:17.045Z,10.77
2023-01-27T21:51:18.000Z,10.13
2023-01-27T21:54:19.416Z,10.57
2023-01-27T21:57:20.676Z,10.70
2023-01-27T22:00:24.246Z,10.45
2023-01-27T22:03:25.337Z,10.85
2023-01-27T22:06:26.110Z,10.52
2023-01-27T22:09:26.918Z,10.48
2023-01-27T22:12:27.834Z,11.48
2023-01-27T22:15:31.241Z,11.20
2023-01-27T22:18:31.919Z,11.10
2023-01-27T22:21:32.693Z,11.40
2023-01-27T22:24:33.767Z,11.98
2023-01-27T22:27:35.168Z,11.18
2023-01-27T22:30:37.390Z,11.70
2023-01-27T22:33:38.356Z,11.40
2023-01-27T22:36:39.152Z,11.43
2023-01-27T22:39:42.396Z,11.40
2023-01-27T22:42:43.216Z,12.57
2023-01-27T22:45:44.321Z,11.75
2023-01-27T22:48:48.012Z,13.00
2023-01-27T22:51:48.978Z,12.65
2023-01-27T22:54:50.019Z,12.43
2023-01-27T22:57:50.988Z,12.77
2023-01-27T23:00:52.467Z,12.65
2023-01-27T23:03:53.422Z,12.13
2023-01-27T23:06:54.063Z,13.10
2023-01-27T23:09:55.196Z,12.63
2023-01-27T23:12:56.007Z,13.23
2023-01-27T23:15:57.408Z,13.18
2023-01-27T23:18:58.393Z,12.63
2023-01-27T23:25:40.718Z,13.07
2023-01-27T23:28:41.347Z,13.00
2023-01-27T23:31:42.594Z,12.55
2023-01-27T23:34:43.700Z,14.48
2023-01-27T23:37:44.497Z,13.63
2023-01-27T23:40:45.273Z,13.70
2023-01-27T23:43:52.328Z,14.18
2023-01-27T23:46:53.039Z,13.70
2023-01-27T23:49:54.114Z,14.20
2023-01-27T23:52:55.005Z,13.25
2023-01-27T23:55:57.585Z,13.23
2023-01-27T23:58:58.586Z,14.20
